sensor_id;sensor_type;location;lat;lon;timestamp;pressure;altitude;pressure_sealevel;temperature;humidity
75594;BME280;64176;49.156;7.810;2023-07-29T00:02:42;98611.06;;;16.58;100.00
75594;BME280;64176;49.156;7.810;2023-07-29T00:05:26;98609.50;;;16.52;100.00
75594;BME280;64176;49.156;7.810;2023-07-29T00:08:10;98608.44;;;16.58;100.00
75594;BME280;64176;49.156;7.810;2023-07-29T00:10:54;98611.25;;;16.52;100.00
75594;BME280;64176;49.156;7.810;2023-07-29T00:13:38;98608.59;;;16.53;100.00
75594;BME280;64176;49.156;7.810;2023-07-29T00:16:22;98606.66;;;16.60;100.00
75594;BME280;64176;49.156;7.810;2023-07-29T00:19:06;98607.50;;;16.62;100.00
75594;BME280;64176;49.156;7.810;2023-07-29T00:21:50;98609.91;;;16.68;100.00
75594;BME280;64176;49.156;7.810;2023-07-29T00:24:40;98614.44;;;16.63;100.00
75594;BME280;64176;49.156;7.810;2023-07-29T00:27:24;98612.59;;;16.66;100.00
75594;BME280;64176;49.156;7.810;2023-07-29T00:30:09;98598.81;;;16.60;100.00
75594;BME280;64176;49.156;7.810;2023-07-29T00:32:53;98599.63;;;16.63;100.00
75594;BME280;64176;49.156;7.810;2023-07-29T00:35:37;98601.06;;;16.73;100.00
75594;BME280;64176;49.156;7.810;2023-07-29T00:38:21;98601.84;;;16.77;100.00
75594;BME280;64176;49.156;7.810;2023-07-29T00:41:05;98593.34;;;16.69;100.00
75594;BME280;64176;49.156;7.810;2023-07-29T00:43:49;98596.50;;;16.80;100.00
75594;BME280;64176;49.156;7.810;2023-07-29T00:46:34;98589.75;;;16.73;100.00
75594;BME280;64176;49.156;7.810;2023-07-29T00:49:21;98593.97;;;16.79;100.00
75594;BME280;64176;49.156;7.810;2023-07-29T00:52:07;98598.31;;;16.78;100.00
75594;BME280;64176;49.156;7.810;2023-07-29T00:54:51;98592.19;;;16.79;100.00
75594;BME280;64176;49.156;7.810;2023-07-29T00:57:38;98587.78;;;16.81;100.00
75594;BME280;64176;49.156;7.810;2023-07-29T01:00:24;98584.44;;;16.78;100.00
75594;BME280;64176;49.156;7.810;2023-07-29T01:03:08;98589.56;;;16.79;100.00
75594;BME280;64176;49.156;7.810;2023-07-29T01:09:02;98578.31;;;16.79;100.00
75594;BME280;64176;49.156;7.810;2023-07-29T01:15:28;98572.47;;;16.69;100.00
75594;BME280;64176;49.156;7.810;2023-07-29T01:18:26;98571.53;;;16.71;100.00
75594;BME280;64176;49.156;7.810;2023-07-29T01:21:13;98569.72;;;16.75;100.00
75594;BME280;64176;49.156;7.810;2023-07-29T01:24:01;98566.38;;;16.70;100.00
75594;BME280;64176;49.156;7.810;2023-07-29T01:26:45;98567.13;;;16.73;100.00
75594;BME280;64176;49.156;7.810;2023-07-29T01:29:29;98560.22;;;16.72;100.00
75594;BME280;64176;49.156;7.810;2023-07-29T01:32:41;98564.53;;;16.73;100.00
75594;BME280;64176;49.156;7.810;2023-07-29T01:35:36;98559.25;;;16.75;100.00
75594;BME280;64176;49.156;7.810;2023-07-29T01:38:28;98564.19;;;16.84;100.00
75594;BME280;64176;49.156;7.810;2023-07-29T01:41:16;98573.81;;;16.82;100.00
75594;BME280;64176;49.156;7.810;2023-07-29T01:44:01;98575.91;;;16.71;100.00
75594;BME280;64176;49.156;7.810;2023-07-29T01:46:49;98565.50;;;16.69;100.00
75594;BME280;64176;49.156;7.810;2023-07-29T01:49:33;98578.22;;;16.80;100.00
75594;BME280;64176;49.156;7.810;2023-07-29T01:52:20;98573.88;;;16.81;100.00
75594;BME280;64176;49.156;7.810;2023-07-29T01:55:07;98573.91;;;16.79;100.00
75594;BME280;64176;49.156;7.810;2023-07-29T01:57:51;98566.09;;;16.79;100.00
75594;BME280;64176;49.156;7.810;2023-07-29T02:00:36;98568.59;;;16.82;100.00
75594;BME280;64176;49.156;7.810;2023-07-29T02:03:20;98561.72;;;16.80;100.00
75594;BME280;64176;49.156;7.810;2023-07-29T02:06:04;98569.84;;;16.70;100.00
75594;BME280;64176;49.156;7.810;2023-07-29T02:08:49;98570.72;;;16.69;100.00
75594;BME280;64176;49.156;7.810;2023-07-29T02:11:33;98556.09;;;16.65;100.00
75594;BME280;64176;49.156;7.810;2023-07-29T02:14:19;98550.75;;;16.68;100.00
75594;BME280;64176;49.156;7.810;2023-07-29T02:17:03;98550.75;;;16.68;100.00
75594;BME280;64176;49.156;7.810;2023-07-29T02:19:47;98547.00;;;16.79;100.00
75594;BME280;64176;49.156;7.810;2023-07-29T02:22:31;98539.25;;;16.76;100.00
75594;BME280;64176;49.156;7.810;2023-07-29T02:25:15;98550.38;;;16.81;100.00
75594;BME280;64176;49.156;7.810;2023-07-29T02:28:01;98541.81;;;16.77;100.00
75594;BME280;64176;49.156;7.810;2023-07-29T02:31:17;98544.31;;;16.80;100.00
75594;BME280;64176;49.156;7.810;2023-07-29T02:34:03;98535.06;;;16.70;100.00
75594;BME280;64176;49.156;7.810;2023-07-29T02:36:47;98537.91;;;16.61;100.00
75594;BME280;64176;49.156;7.810;2023-07-29T02:39:31;98547.50;;;16.62;100.00
75594;BME280;64176;49.156;7.810;2023-07-29T02:42:17;98541.94;;;16.72;100.00
75594;BME280;64176;49.156;7.810;2023-07-29T02:45:01;98547.88;;;16.78;100.00
75594;BME280;64176;49.156;7.810;2023-07-29T02:47:47;98538.31;;;16.78;100.00
75594;BME280;64176;49.156;7.810;2023-07-29T02:50:31;98539.81;;;16.85;100.00
75594;BME280;64176;49.156;7.810;2023-07-29T02:53:15;98535.44;;;16.86;100.00
75594;BME280;64176;49.156;7.810;2023-07-29T02:55:59;98532.88;;;16.84;100.00
75594;BME280;64176;49.156;7.810;2023-07-29T02:58:43;98522.50;;;16.83;100.00
75594;BME280;64176;49.156;7.810;2023-07-29T03:01:31;98519.06;;;16.81;100.00
75594;BME280;64176;49.156;7.810;2023-07-29T03:04:15;98518.16;;;16.82;100.00
75594;BME280;64176;49.156;7.810;2023-07-29T03:07:01;98507.88;;;16.77;100.00
75594;BME280;64176;49.156;7.810;2023-07-29T03:09:46;98496.81;;;16.69;100.00
75594;BME280;64176;49.156;7.810;2023-07-29T03:12:33;98491.34;;;16.78;100.00
75594;BME280;64176;49.156;7.810;2023-07-29T03:15:17;98487.06;;;16.76;100.00
75594;BME280;64176;49.156;7.810;2023-07-29T03:18:01;98492.03;;;16.83;100.00
75594;BME280;64176;49.156;7.810;2023-07-29T03:20:45;98488.47;;;16.86;100.00
75594;BME280;64176;49.156;7.810;2023-07-29T03:23:35;98496.38;;;16.83;100.00
75594;BME280;64176;49.156;7.810;2023-07-29T03:26:19;98493.94;;;16.78;100.00
75594;BME280;64176;49.156;7.810;2023-07-29T03:29:03;98496.38;;;16.83;100.00
75594;BME280;64176;49.156;7.810;2023-07-29T03:31:47;98498.19;;;16.81;100.00
75594;BME280;64176;49.156;7.810;2023-07-29T03:34:31;98489.31;;;16.86;100.00
75594;BME280;64176;49.156;7.810;2023-07-29T03:37:18;98493.66;;;16.87;100.00
75594;BME280;64176;49.156;7.810;2023-07-29T03:40:03;98497.25;;;16.83;100.00
75594;BME280;64176;49.156;7.810;2023-07-29T03:42:47;98496.22;;;16.89;100.00
75594;BME280;64176;49.156;7.810;2023-07-29T03:45:32;98495.34;;;16.88;100.00
75594;BME280;64176;49.156;7.810;2023-07-29T03:48:16;98494.69;;;16.82;100.00
75594;BME280;64176;49.156;7.810;2023-07-29T03:51:00;98496.03;;;16.93;100.00
75594;BME280;64176;49.156;7.810;2023-07-29T03:53:44;98496.44;;;16.81;100.00
75594;BME280;64176;49.156;7.810;2023-07-29T03:56:28;98503.75;;;16.70;100.00
75594;BME280;64176;49.156;7.810;2023-07-29T03:59:12;98495.25;;;16.63;100.00
75594;BME280;64176;49.156;7.810;2023-07-29T04:01:56;98490.75;;;16.68;100.00
75594;BME280;64176;49.156;7.810;2023-07-29T04:04:40;98482.00;;;16.69;100.00
75594;BME280;64176;49.156;7.810;2023-07-29T04:07:28;98491.38;;;16.77;100.00
75594;BME280;64176;49.156;7.810;2023-07-29T04:10:15;98499.69;;;16.89;100.00
75594;BME280;64176;49.156;7.810;2023-07-29T04:12:59;98489.88;;;16.96;100.00
75594;BME280;64176;49.156;7.810;2023-07-29T04:15:46;98501.34;;;16.90;100.00
75594;BME280;64176;49.156;7.810;2023-07-29T04:18:30;98501.31;;;16.92;100.00
75594;BME280;64176;49.156;7.810;2023-07-29T04:21:14;98489.38;;;16.85;100.00
75594;BME280;64176;49.156;7.810;2023-07-29T04:23:58;98473.28;;;16.70;100.00
75594;BME280;64176;49.156;7.810;2023-07-29T04:26:44;98493.78;;;16.83;100.00
75594;BME280;64176;49.156;7.810;2023-07-29T04:29:28;98499.59;;;16.91;100.00
75594;BME280;64176;49.156;7.810;2023-07-29T04:32:17;98503.06;;;16.91;100.00
75594;BME280;64176;49.156;7.810;2023-07-29T04:35:01;98507.56;;;16.88;100.00
75594;BME280;64176;49.156;7.810;2023-07-29T04:37:45;98511.66;;;16.95;100.00
75594;BME280;64176;49.156;7.810;2023-07-29T04:40:35;98502.78;;;17.00;100.00
75594;BME280;64176;49.156;7.810;2023-07-29T04:43:19;98512.31;;;17.01;100.00
75594;BME280;64176;49.156;7.810;2023-07-29T04:46:07;98513.13;;;17.03;100.00
75594;BME280;64176;49.156;7.810;2023-07-29T04:48:56;98512.31;;;17.01;100.00
75594;BME280;64176;49.156;7.810;2023-07-29T04:51:40;98518.25;;;17.06;100.00
75594;BME280;64176;49.156;7.810;2023-07-29T04:54:30;98508.56;;;17.10;100.00
75594;BME280;64176;49.156;7.810;2023-07-29T04:57:13;98495.34;;;17.15;100.00
75594;BME280;64176;49.156;7.810;2023-07-29T05:00:03;98506.63;;;17.15;100.00
75594;BME280;64176;49.156;7.810;2023-07-29T05:02:47;98517.03;;;17.17;100.00
75594;BME280;64176;49.156;7.810;2023-07-29T05:05:32;98524.81;;;17.18;100.00
75594;BME280;64176;49.156;7.810;2023-07-29T05:08:16;98528.06;;;17.25;100.00
75594;BME280;64176;49.156;7.810;2023-07-29T05:11:00;98522.75;;;17.28;100.00
75594;BME280;64176;49.156;7.810;2023-07-29T05:13:46;98520.88;;;17.33;100.00
75594;BME280;64176;49.156;7.810;2023-07-29T05:16:30;98513.94;;;17.32;100.00
75594;BME280;64176;49.156;7.810;2023-07-29T05:19:14;98524.41;;;17.30;100.00
75594;BME280;64176;49.156;7.810;2023-07-29T05:21:58;98523.34;;;17.36;100.00
75594;BME280;64176;49.156;7.810;2023-07-29T05:24:42;98529.56;;;17.33;100.00
75594;BME280;64176;49.156;7.810;2023-07-29T05:27:28;98524.31;;;17.33;100.00
75594;BME280;64176;49.156;7.810;2023-07-29T05:30:12;98537.16;;;17.39;100.00
75594;BME280;64176;49.156;7.810;2023-07-29T05:32:57;98532.84;;;17.38;100.00
75594;BME280;64176;49.156;7.810;2023-07-29T05:35:41;98523.19;;;17.40;100.00
75594;BME280;64176;49.156;7.810;2023-07-29T05:38:28;98528.28;;;17.45;100.00
75594;BME280;64176;49.156;7.810;2023-07-29T05:41:12;98537.50;;;17.55;100.00
75594;BME280;64176;49.156;7.810;2023-07-29T05:43:56;98522.56;;;17.59;100.00
75594;BME280;64176;49.156;7.810;2023-07-29T05:46:43;98524.22;;;17.88;100.00
75594;BME280;64176;49.156;7.810;2023-07-29T05:49:29;98525.28;;;18.05;100.00
75594;BME280;64176;49.156;7.810;2023-07-29T05:52:14;98523.44;;;18.09;100.00
75594;BME280;64176;49.156;7.810;2023-07-29T05:54:59;98528.53;;;18.12;100.00
75594;BME280;64176;49.156;7.810;2023-07-29T05:57:43;98542.91;;;18.24;100.00
75594;BME280;64176;49.156;7.810;2023-07-29T06:00:27;98536.63;;;18.29;100.00
75594;BME280;64176;49.156;7.810;2023-07-29T06:03:13;98551.97;;;18.38;100.00
75594;BME280;64176;49.156;7.810;2023-07-29T06:05:57;98538.53;;;18.47;100.00
75594;BME280;64176;49.156;7.810;2023-07-29T06:08:41;98544.53;;;18.51;100.00
75594;BME280;64176;49.156;7.810;2023-07-29T06:11:25;98546.13;;;18.55;100.00
75594;BME280;64176;49.156;7.810;2023-07-29T06:14:09;98550.34;;;18.59;100.00
75594;BME280;64176;49.156;7.810;2023-07-29T06:16:53;98547.03;;;18.54;100.00
75594;BME280;64176;49.156;7.810;2023-07-29T06:19:37;98549.81;;;18.49;100.00
75594;BME280;64176;49.156;7.810;2023-07-29T06:22:22;98559.22;;;18.55;100.00
75594;BME280;64176;49.156;7.810;2023-07-29T06:25:06;98560.75;;;18.61;100.00
75594;BME280;64176;49.156;7.810;2023-07-29T06:27:50;98565.88;;;18.64;100.00
75594;BME280;64176;49.156;7.810;2023-07-29T06:30:34;98560.44;;;18.68;100.00
75594;BME280;64176;49.156;7.810;2023-07-29T06:33:21;98548.00;;;18.75;100.00
75594;BME280;64176;49.156;7.810;2023-07-29T06:36:07;98550.19;;;18.85;100.00
75594;BME280;64176;49.156;7.810;2023-07-29T06:38:51;98546.78;;;18.83;100.00
75594;BME280;64176;49.156;7.810;2023-07-29T06:41:35;98558.72;;;18.90;100.00
75594;BME280;64176;49.156;7.810;2023-07-29T06:44:21;98541.72;;;19.01;100.00
75594;BME280;64176;49.156;7.810;2023-07-29T06:47:05;98543.72;;;19.16;100.00
75594;BME280;64176;49.156;7.810;2023-07-29T06:49:54;98541.03;;;19.39;100.00
75594;BME280;64176;49.156;7.810;2023-07-29T06:52:38;98546.44;;;19.56;100.00
75594;BME280;64176;49.156;7.810;2023-07-29T06:55:24;98555.88;;;19.39;100.00
75594;BME280;64176;49.156;7.810;2023-07-29T06:58:08;98556.56;;;19.22;100.00
75594;BME280;64176;49.156;7.810;2023-07-29T07:00:52;98555.31;;;19.10;100.00
75594;BME280;64176;49.156;7.810;2023-07-29T07:03:36;98545.00;;;19.06;100.00
75594;BME280;64176;49.156;7.810;2023-07-29T07:06:22;98546.91;;;19.02;100.00
75594;BME280;64176;49.156;7.810;2023-07-29T07:09:08;98541.72;;;19.01;100.00
75594;BME280;64176;49.156;7.810;2023-07-29T07:11:52;98548.59;;;19.03;100.00
75594;BME280;64176;49.156;7.810;2023-07-29T07:14:37;98543.00;;;19.12;100.00
75594;BME280;64176;49.156;7.810;2023-07-29T07:17:21;98542.69;;;19.20;100.00
75594;BME280;64176;49.156;7.810;2023-07-29T07:20:05;98543.13;;;19.31;100.00
75594;BME280;64176;49.156;7.810;2023-07-29T07:22:50;98549.06;;;19.35;100.00
75594;BME280;64176;49.156;7.810;2023-07-29T07:25:34;98556.00;;;19.36;100.00
75594;BME280;64176;49.156;7.810;2023-07-29T07:28:18;98564.59;;;19.39;100.00
75594;BME280;64176;49.156;7.810;2023-07-29T07:31:02;98563.28;;;19.29;100.00
75594;BME280;64176;49.156;7.810;2023-07-29T07:33:48;98577.19;;;19.31;100.00
75594;BME280;64176;49.156;7.810;2023-07-29T07:36:35;98582.59;;;19.26;100.00
75594;BME280;64176;49.156;7.810;2023-07-29T07:39:22;98583.63;;;19.22;100.00
75594;BME280;64176;49.156;7.810;2023-07-29T07:42:06;98587.59;;;19.11;100.00
75594;BME280;64176;49.156;7.810;2023-07-29T07:44:49;98572.72;;;19.11;100.00
75594;BME280;64176;49.156;7.810;2023-07-29T07:47:33;98578.19;;;19.27;100.00
75594;BME280;64176;49.156;7.810;2023-07-29T07:50:17;98569.72;;;19.42;100.00
75594;BME280;64176;49.156;7.810;2023-07-29T07:53:01;98574.56;;;19.53;100.00
75594;BME280;64176;49.156;7.810;2023-07-29T07:55:45;98581.13;;;19.63;100.00
75594;BME280;64176;49.156;7.810;2023-07-29T07:58:30;98578.97;;;19.73;100.00
75594;BME280;64176;49.156;7.810;2023-07-29T08:01:14;98572.50;;;20.41;100.00
75594;BME280;64176;49.156;7.810;2023-07-29T08:03:58;98575.25;;;20.38;99.06
75594;BME280;64176;49.156;7.810;2023-07-29T08:06:42;98563.28;;;20.69;98.00
75594;BME280;64176;49.156;7.810;2023-07-29T08:09:26;98564.81;;;20.55;97.75
75594;BME280;64176;49.156;7.810;2023-07-29T08:12:09;98580.47;;;20.77;97.97
75594;BME280;64176;49.156;7.810;2023-07-29T08:14:53;98577.25;;;20.70;96.37
75594;BME280;64176;49.156;7.810;2023-07-29T08:17:37;98576.97;;;20.57;96.05
75594;BME280;64176;49.156;7.810;2023-07-29T08:20:24;98578.03;;;20.33;97.35
75594;BME280;64176;49.156;7.810;2023-07-29T08:23:08;98587.47;;;20.18;97.87
75594;BME280;64176;49.156;7.810;2023-07-29T08:25:53;98575.31;;;20.16;98.41
75594;BME280;64176;49.156;7.810;2023-07-29T08:28:40;98581.16;;;20.22;96.77
75594;BME280;64176;49.156;7.810;2023-07-29T08:31:24;98583.00;;;20.41;95.60
75594;BME280;64176;49.156;7.810;2023-07-29T08:34:08;98586.47;;;20.79;94.38
75594;BME280;64176;49.156;7.810;2023-07-29T08:36:52;98584.88;;;21.12;92.77
75594;BME280;64176;49.156;7.810;2023-07-29T08:39:36;98574.34;;;21.84;89.83
75594;BME280;64176;49.156;7.810;2023-07-29T08:42:29;98571.63;;;22.20;86.11
75594;BME280;64176;49.156;7.810;2023-07-29T08:45:13;98571.34;;;22.25;86.78
75594;BME280;64176;49.156;7.810;2023-07-29T08:47:58;98565.00;;;22.29;84.78
75594;BME280;64176;49.156;7.810;2023-07-29T08:50:44;98553.56;;;22.30;83.06
75594;BME280;64176;49.156;7.810;2023-07-29T08:53:28;98564.53;;;22.53;83.57
75594;BME280;64176;49.156;7.810;2023-07-29T08:56:12;98571.00;;;21.98;84.23
75594;BME280;64176;49.156;7.810;2023-07-29T08:58:59;98571.53;;;21.70;85.01
75594;BME280;64176;49.156;7.810;2023-07-29T09:01:48;98565.75;;;21.63;84.77
75594;BME280;64176;49.156;7.810;2023-07-29T09:04:32;98566.81;;;21.59;84.49
75594;BME280;64176;49.156;7.810;2023-07-29T09:07:16;98564.50;;;21.70;85.73
75594;BME280;64176;49.156;7.810;2023-07-29T09:10:01;98568.38;;;21.80;83.44
75594;BME280;64176;49.156;7.810;2023-07-29T09:12:45;98563.19;;;21.96;82.76
75594;BME280;64176;49.156;7.810;2023-07-29T09:15:30;98559.78;;;21.94;83.70
75594;BME280;64176;49.156;7.810;2023-07-29T09:18:19;98569.69;;;22.06;82.40
75594;BME280;64176;49.156;7.810;2023-07-29T09:21:07;98548.88;;;22.02;83.29
75594;BME280;64176;49.156;7.810;2023-07-29T09:23:51;98564.66;;;21.67;82.54
75594;BME280;64176;49.156;7.810;2023-07-29T09:26:35;98559.63;;;21.46;84.59
75594;BME280;64176;49.156;7.810;2023-07-29T09:29:22;98565.56;;;21.32;82.83
75594;BME280;64176;49.156;7.810;2023-07-29T09:32:20;98577.22;;;21.26;82.31
75594;BME280;64176;49.156;7.810;2023-07-29T09:35:10;98584.19;;;21.27;84.74
75594;BME280;64176;49.156;7.810;2023-07-29T09:37:57;98584.03;;;21.12;86.17
75594;BME280;64176;49.156;7.810;2023-07-29T09:40:41;98577.56;;;21.37;85.24
75594;BME280;64176;49.156;7.810;2023-07-29T09:43:31;98566.72;;;21.43;86.83
75594;BME280;64176;49.156;7.810;2023-07-29T09:46:15;98565.34;;;21.36;88.07
75594;BME280;64176;49.156;7.810;2023-07-29T09:49:07;98569.25;;;21.64;89.12
75594;BME280;64176;49.156;7.810;2023-07-29T09:51:55;98574.88;;;21.73;85.53
75594;BME280;64176;49.156;7.810;2023-07-29T09:54:40;98570.84;;;22.01;86.02
75594;BME280;64176;49.156;7.810;2023-07-29T09:57:29;98574.41;;;22.17;84.71
75594;BME280;64176;49.156;7.810;2023-07-29T10:00:13;98570.28;;;22.44;81.83
75594;BME280;64176;49.156;7.810;2023-07-29T10:02:58;98588.56;;;22.14;79.78
75594;BME280;64176;49.156;7.810;2023-07-29T10:05:43;98586.63;;;22.18;80.25
75594;BME280;64176;49.156;7.810;2023-07-29T10:08:30;98579.97;;;22.28;81.01
75594;BME280;64176;49.156;7.810;2023-07-29T10:11:16;98564.94;;;22.30;78.96
75594;BME280;64176;49.156;7.810;2023-07-29T10:14:04;98572.25;;;22.08;76.78
75594;BME280;64176;49.156;7.810;2023-07-29T10:16:49;98582.75;;;21.91;79.21
75594;BME280;64176;49.156;7.810;2023-07-29T10:19:34;98590.41;;;21.61;83.02
75594;BME280;64176;49.156;7.810;2023-07-29T10:22:20;98598.88;;;22.02;82.24
75594;BME280;64176;49.156;7.810;2023-07-29T10:25:24;98599.91;;;21.46;79.47
75594;BME280;64176;49.156;7.810;2023-07-29T10:28:11;98588.19;;;21.53;79.27
75594;BME280;64176;49.156;7.810;2023-07-29T10:30:56;98586.72;;;21.82;77.98
75594;BME280;64176;49.156;7.810;2023-07-29T10:33:41;98592.41;;;22.25;77.02
75594;BME280;64176;49.156;7.810;2023-07-29T10:36:27;98589.66;;;21.76;76.11
75594;BME280;64176;49.156;7.810;2023-07-29T10:39:15;98598.31;;;21.61;76.71
75594;BME280;64176;49.156;7.810;2023-07-29T10:42:01;98592.19;;;21.77;77.39
75594;BME280;64176;49.156;7.810;2023-07-29T10:44:47;98595.63;;;21.97;74.22
75594;BME280;64176;49.156;7.810;2023-07-29T10:47:33;98596.31;;;22.18;73.39
75594;BME280;64176;49.156;7.810;2023-07-29T10:50:20;98590.97;;;22.19;72.26
75594;BME280;64176;49.156;7.810;2023-07-29T10:53:06;98582.22;;;22.67;70.30
75594;BME280;64176;49.156;7.810;2023-07-29T10:55:52;98588.19;;;22.71;68.02
75594;BME280;64176;49.156;7.810;2023-07-29T10:58:36;98587.47;;;22.51;68.15
75594;BME280;64176;49.156;7.810;2023-07-29T11:01:29;98576.88;;;22.53;68.93
75594;BME280;64176;49.156;7.810;2023-07-29T11:10:00;98574.63;;;22.45;67.75
75594;BME280;64176;49.156;7.810;2023-07-29T11:12:51;98579.66;;;22.50;67.61
75594;BME280;64176;49.156;7.810;2023-07-29T11:15:38;98589.13;;;22.70;67.47
75594;BME280;64176;49.156;7.810;2023-07-29T11:18:22;98583.38;;;22.46;66.70
75594;BME280;64176;49.156;7.810;2023-07-29T11:21:06;98585.34;;;22.58;67.47
75594;BME280;64176;49.156;7.810;2023-07-29T11:23:53;98583.94;;;22.68;66.12
75594;BME280;64176;49.156;7.810;2023-07-29T11:26:39;98578.78;;;22.82;66.94
75594;BME280;64176;49.156;7.810;2023-07-29T11:29:32;98567.50;;;22.96;65.38
75594;BME280;64176;49.156;7.810;2023-07-29T11:32:16;98563.06;;;23.42;67.32
75594;BME280;64176;49.156;7.810;2023-07-29T11:35:04;98571.34;;;23.82;67.39
75594;BME280;64176;49.156;7.810;2023-07-29T11:37:49;98565.63;;;23.44;63.54
75594;BME280;64176;49.156;7.810;2023-07-29T11:40:33;98568.94;;;23.47;63.62
75594;BME280;64176;49.156;7.810;2023-07-29T11:43:20;98565.53;;;23.45;59.62
75594;BME280;64176;49.156;7.810;2023-07-29T11:46:06;98559.69;;;23.86;59.55
75594;BME280;64176;49.156;7.810;2023-07-29T11:48:54;98572.31;;;23.65;57.84
75594;BME280;64176;49.156;7.810;2023-07-29T11:51:38;98562.09;;;23.29;57.77
75594;BME280;64176;49.156;7.810;2023-07-29T11:54:22;98577.78;;;23.46;59.89
75594;BME280;64176;49.156;7.810;2023-07-29T11:57:10;98571.59;;;23.32;58.15
75594;BME280;64176;49.156;7.810;2023-07-29T11:59:54;98564.09;;;23.55;58.31
75594;BME280;64176;49.156;7.810;2023-07-29T12:02:41;98568.00;;;23.48;57.07
75594;BME280;64176;49.156;7.810;2023-07-29T12:05:26;98561.81;;;23.34;58.36
75594;BME280;64176;49.156;7.810;2023-07-29T12:08:10;98564.53;;;23.64;59.02
75594;BME280;64176;49.156;7.810;2023-07-29T12:10:54;98557.53;;;23.47;59.32
75594;BME280;64176;49.156;7.810;2023-07-29T12:13:38;98560.03;;;23.34;59.65
75594;BME280;64176;49.156;7.810;2023-07-29T12:16:25;98550.66;;;23.60;58.87
75594;BME280;64176;49.156;7.810;2023-07-29T12:19:12;98553.13;;;23.63;60.38
75594;BME280;64176;49.156;7.810;2023-07-29T12:21:56;98542.03;;;23.72;58.99
75594;BME280;64176;49.156;7.810;2023-07-29T12:24:40;98554.78;;;23.94;58.35
75594;BME280;64176;49.156;7.810;2023-07-29T12:27:24;98552.28;;;23.77;57.92
75594;BME280;64176;49.156;7.810;2023-07-29T12:30:09;98558.91;;;23.98;59.15
75594;BME280;64176;49.156;7.810;2023-07-29T12:32:55;98562.19;;;23.87;57.79
75594;BME280;64176;49.156;7.810;2023-07-29T12:35:39;98552.69;;;23.85;59.64
75594;BME280;64176;49.156;7.810;2023-07-29T12:38:25;98560.84;;;23.66;58.48
75594;BME280;64176;49.156;7.810;2023-07-29T12:41:09;98551.94;;;23.53;60.62
75594;BME280;64176;49.156;7.810;2023-07-29T12:43:53;98557.72;;;23.44;61.59
75594;BME280;64176;49.156;7.810;2023-07-29T12:46:37;98559.22;;;23.18;62.14
75594;BME280;64176;49.156;7.810;2023-07-29T12:49:21;98563.44;;;23.20;62.43
75594;BME280;64176;49.156;7.810;2023-07-29T12:52:08;98565.41;;;23.33;62.61
75594;BME280;64176;49.156;7.810;2023-07-29T12:54:52;98559.88;;;23.21;62.37
75594;BME280;64176;49.156;7.810;2023-07-29T12:57:36;98557.31;;;23.20;62.55
75594;BME280;64176;49.156;7.810;2023-07-29T13:00:20;98552.81;;;23.22;63.53
75594;BME280;64176;49.156;7.810;2023-07-29T13:03:04;98542.47;;;23.03;63.13
75594;BME280;64176;49.156;7.810;2023-07-29T13:05:49;98550.22;;;22.91;63.72
75594;BME280;64176;49.156;7.810;2023-07-29T13:11:17;98547.03;;;22.68;68.50
75594;BME280;64176;49.156;7.810;2023-07-29T13:14:01;98557.34;;;22.88;67.96
75594;BME280;64176;49.156;7.810;2023-07-29T13:16:50;98538.91;;;22.88;67.28
75594;BME280;64176;49.156;7.810;2023-07-29T13:19:34;98535.00;;;22.80;68.20
75594;BME280;64176;49.156;7.810;2023-07-29T13:22:19;98522.56;;;22.66;67.26
75594;BME280;64176;49.156;7.810;2023-07-29T13:25:04;98523.34;;;22.68;69.53
75594;BME280;64176;49.156;7.810;2023-07-29T13:27:48;98525.97;;;22.52;70.03
75594;BME280;64176;49.156;7.810;2023-07-29T13:30:35;98517.50;;;22.63;69.81
75594;BME280;64176;49.156;7.810;2023-07-29T13:33:18;98509.75;;;22.92;68.90
75594;BME280;64176;49.156;7.810;2023-07-29T13:36:07;98505.19;;;23.25;66.73
75594;BME280;64176;49.156;7.810;2023-07-29T13:38:52;98507.88;;;23.39;65.25
75594;BME280;64176;49.156;7.810;2023-07-29T13:41:36;98517.75;;;23.66;64.83
75594;BME280;64176;49.156;7.810;2023-07-29T13:44:20;98504.06;;;23.75;61.92
75594;BME280;64176;49.156;7.810;2023-07-29T13:47:04;98517.47;;;23.56;63.55
75594;BME280;64176;49.156;7.810;2023-07-29T13:49:52;98519.09;;;23.58;61.30
75594;BME280;64176;49.156;7.810;2023-07-29T13:52:36;98524.88;;;23.79;61.36
75594;BME280;64176;49.156;7.810;2023-07-29T13:55:20;98526.41;;;23.83;59.17
75594;BME280;64176;49.156;7.810;2023-07-29T13:58:05;98527.03;;;23.73;60.68
75594;BME280;64176;49.156;7.810;2023-07-29T14:00:49;98528.34;;;23.80;60.54
75594;BME280;64176;49.156;7.810;2023-07-29T14:03:33;98525.03;;;23.62;60.46
75594;BME280;64176;49.156;7.810;2023-07-29T14:06:17;98525.97;;;23.61;60.37
75594;BME280;64176;49.156;7.810;2023-07-29T14:09:03;98538.03;;;23.65;60.73
75594;BME280;64176;49.156;7.810;2023-07-29T14:11:47;98527.28;;;23.68;59.30
75594;BME280;64176;49.156;7.810;2023-07-29T14:14:31;98531.84;;;23.80;58.89
75594;BME280;64176;49.156;7.810;2023-07-29T14:17:15;98516.59;;;24.00;58.55
75594;BME280;64176;49.156;7.810;2023-07-29T14:19:59;98517.75;;;24.24;58.46
75594;BME280;64176;49.156;7.810;2023-07-29T14:22:43;98510.75;;;24.09;56.97
75594;BME280;64176;49.156;7.810;2023-07-29T14:25:27;98527.63;;;23.92;56.64
75594;BME280;64176;49.156;7.810;2023-07-29T14:28:13;98520.66;;;24.05;56.85
75594;BME280;64176;49.156;7.810;2023-07-29T14:30:58;98519.34;;;24.12;56.18
75594;BME280;64176;49.156;7.810;2023-07-29T14:33:43;98522.19;;;24.23;56.99
75594;BME280;64176;49.156;7.810;2023-07-29T14:36:28;98522.75;;;24.43;55.95
75594;BME280;64176;49.156;7.810;2023-07-29T14:39:11;98520.31;;;24.25;55.15
75594;BME280;64176;49.156;7.810;2023-07-29T14:41:55;98516.16;;;24.36;56.45
75594;BME280;64176;49.156;7.810;2023-07-29T14:44:39;98513.25;;;24.40;55.87
75594;BME280;64176;49.156;7.810;2023-07-29T14:47:25;98515.94;;;24.53;56.53